SV1LH-1 Melissia GR current weather conditions

sailwx.info

Wind from 112 at 2 knots gusting 3

Air temperature 18.9° C
Dewpoint 13.1° C

Last reported at 2017-May-30 12:09 UTC.
Time now 2017-May-30 12:59 UTC

Location: N 38°03' E 023°51'.
View on Google Maps.

See reports from other nearby stations

  
Tides and Currents Weather Stations Pressure Air Temp Water Temp Dewpoint Dewpoint Depression Visibility Wind Speed Wind Dir Waves Ship Positions
date/time (UTC)wind fromknots sea level pressurealtimeterstation pressurevisibilityair tempwater tempwave heightnotes
2017-May-30 12:09 112 2 gusting 3 18.9
2017-May-30 12:04 112 2 gusting 4 20.0
2017-May-30 11:59 157 3 gusting 5 21.7
2017-May-30 11:54 157 3 gusting 6 21.7
2017-May-30 11:49 202 2 gusting 5 21.7
2017-May-30 11:44 202 3 gusting 6 21.7
2017-May-30 11:39 180 3 gusting 6 21.7
2017-May-30 11:34 112 3 gusting 4 22.2
2017-May-30 11:29 180 2 gusting 5 21.7
2017-May-30 11:24 180 4 gusting 6 22.2
2017-May-30 11:19 157 4 gusting 6 22.2
2017-May-30 11:14 135 4 gusting 6 22.8
2017-May-30 11:09 225 5 gusting 7 23.3
2017-May-30 11:04 225 3 gusting 6 23.9
2017-May-30 10:59 202 3 gusting 4 24.4
2017-May-30 10:54 180 3 gusting 6 25.6
2017-May-30 10:49 247 1 gusting 2 26.7
2017-May-30 10:44 247 1 gusting 3 27.8
2017-May-30 10:39 045 1 gusting 5 27.8
2017-May-30 10:34 27.2
2017-May-30 10:29 27.2
2017-May-30 10:24 270 26.7
2017-May-30 10:19 26.7
2017-May-30 10:14 045 3 gusting 5 27.8
2017-May-30 10:09 135 1 gusting 2 26.7
2017-May-30 10:04 090 1 gusting 2 26.1
2017-May-30 09:59 315 1 gusting 2 26.7
2017-May-30 09:54 337 0 gusting 1 27.8
2017-May-30 09:49 337 1 gusting 3 27.2
2017-May-30 09:44 270 6 gusting 8 27.2
2017-May-30 09:39 202 26.7
2017-May-30 09:34 292 0 gusting 1 26.1
2017-May-30 09:29 045 2 gusting 4 26.1
2017-May-30 09:24 045 5 gusting 6 26.1
2017-May-30 09:19 26.1
2017-May-30 09:14 337 4 gusting 6 26.7
2017-May-30 09:09 022 4 gusting 8 26.7
2017-May-30 09:04 045 2 gusting 3 26.1
2017-May-30 08:59 315 25.6
2017-May-30 08:54 045 2 gusting 5 25.0
2017-May-30 08:49 202 25.0
2017-May-30 08:44 022 2 gusting 4 24.4
2017-May-30 08:39 022 6 gusting 6 25.0
2017-May-30 08:34 25.6
2017-May-30 08:29 022 4 gusting 6 25.0
2017-May-30 08:24 022 1 gusting 3 25.0
2017-May-30 08:19 337 3 gusting 5 24.4
2017-May-30 08:14 24.4
2017-May-30 08:09 23.9
2017-May-30 08:04 315 2 gusting 3 23.9
2017-May-30 07:59 022 4 gusting 6 23.9
2017-May-30 07:54 022 3 gusting 5 24.4
2017-May-30 07:49 25.0
2017-May-30 07:44 315 2 gusting 5 24.4
2017-May-30 07:39 045 3 gusting 6 24.4
2017-May-30 07:34 090 4 gusting 6 23.9
2017-May-30 07:29 23.9
2017-May-30 07:24 23.9
2017-May-30 07:19 23.9
2017-May-30 07:14 315 5 gusting 8 23.3
2017-May-30 07:09 315 6 gusting 8 23.3
2017-May-30 07:04 337 5 gusting 6 23.3
2017-May-30 06:59 022 3 gusting 5 23.9
2017-May-30 06:54 022 4 gusting 7 23.3
2017-May-30 06:49 337 6 gusting 9 23.9
2017-May-30 06:44 315 3 gusting 4 23.9
2017-May-30 06:39 23.9
2017-May-30 06:34 292 3 gusting 6 23.9
2017-May-30 06:29 23.9
2017-May-30 06:24 247 2 gusting 3 23.3
2017-May-30 06:19 23.3
2017-May-30 06:14 315 3 gusting 6 23.3
2017-May-30 06:09 045 2 gusting 4 22.8
2017-May-30 06:04 22.8
2017-May-30 05:59 315 2 gusting 5 22.8
2017-May-30 05:54 22.2
2017-May-30 05:49 270 4 gusting 6 21.7
2017-May-30 05:44 045 5 gusting 6 21.7
2017-May-30 05:39 337 3 gusting 4 21.7
2017-May-30 05:34 21.1
2017-May-30 05:29 337 5 gusting 7 21.1
2017-May-30 05:24 20.6
2017-May-30 05:19 292 3 gusting 4 20.6
2017-May-30 05:14 337 6 gusting 8 20.0
2017-May-30 05:09 337 4 gusting 5 20.0
2017-May-30 05:04 045 2 gusting 4 19.4
2017-May-30 04:59 18.9
2017-May-30 04:54 337 4 gusting 5 18.9
2017-May-30 04:49 18.9
2017-May-30 04:44 18.3
2017-May-30 04:39 17.8
2017-May-30 04:34 17.8
2017-May-30 04:29 022 1 gusting 4 17.2
2017-May-30 04:24 045 3 gusting 5 17.2
2017-May-30 04:19 17.2
2017-May-30 04:14 337 4 gusting 6 16.7
2017-May-30 04:09 16.7
2017-May-30 04:04 045 3 gusting 6 16.1
2017-May-30 03:59 022 4 gusting 8 16.1
2017-May-30 03:54 022 3 gusting 3 15.6
2017-May-30 03:49 15.0
2017-May-30 03:44 15.0
2017-May-30 03:39 15.0
2017-May-30 03:34 022 1 gusting 2 14.4
2017-May-30 03:29 022 1 gusting 2 15.0
2017-May-30 03:24 337 0 gusting 1 15.0
2017-May-30 03:19 15.0
2017-May-30 03:14 022 1 gusting 2 15.0
2017-May-30 03:09 15.0
2017-May-30 03:04 045 1 gusting 3 15.0
2017-May-30 02:59 15.0
2017-May-30 02:54 15.0
2017-May-30 02:49 022 5 gusting 6 15.0
2017-May-30 02:44 022 3 gusting 5 15.0
2017-May-30 02:39 15.0
2017-May-30 02:34 045 3 gusting 5 15.6
2017-May-30 02:29 022 3 gusting 6 15.6
2017-May-30 02:24 15.0
2017-May-30 02:19 15.0
2017-May-30 02:14 045 4 gusting 6 15.0
2017-May-30 02:09 022 4 gusting 5 15.0
2017-May-30 02:04 022 3 gusting 4 15.0
2017-May-30 01:59 15.0
2017-May-30 01:54 15.0
2017-May-30 01:49 15.0
2017-May-30 01:44 15.0
2017-May-30 01:39 15.0
2017-May-30 01:34 15.0
2017-May-30 01:29 045 2 gusting 4 15.0
2017-May-30 01:24 045 3 gusting 5 15.0
2017-May-30 01:19 15.0
2017-May-30 01:14 15.0
2017-May-30 01:09 045 3 gusting 4 15.0
2017-May-30 01:04 022 2 gusting 5 15.0
2017-May-30 00:59 022 2 gusting 3 15.6
2017-May-30 00:54 15.6
2017-May-30 00:49 15.6
2017-May-30 00:44 022 3 gusting 4 15.6
2017-May-30 00:39 15.6
2017-May-30 00:34 337 2 gusting 3 15.6
2017-May-30 00:29 15.6
2017-May-30 00:24 15.6
2017-May-30 00:19 15.6
2017-May-30 00:14 337 0 gusting 1 15.6
2017-May-30 00:09 315 1 gusting 3 15.6
2017-May-30 00:04 112 1 gusting 2 16.1
2017-May-29 23:59 16.1
2017-May-29 23:54 16.1
2017-May-29 23:49 292 3 gusting 6 16.1
2017-May-29 23:44 337 2 gusting 4 16.1
2017-May-29 23:39 112 4 gusting 6 16.1
2017-May-29 23:34 337 5 gusting 8 15.6
2017-May-29 23:29 15.6
2017-May-29 23:24 15.6
2017-May-29 23:19 022 0 gusting 0 16.1
2017-May-29 23:14 045 2 gusting 4 16.1
2017-May-29 23:09 16.1
2017-May-29 23:04 16.1
2017-May-29 22:59 270 3 gusting 6 16.1
2017-May-29 22:54 045 1 gusting 3 16.1
2017-May-29 22:49 292 3 gusting 6 16.1
2017-May-29 22:44 16.1
2017-May-29 22:39 16.1
2017-May-29 22:34 022 2 gusting 6 16.1
2017-May-29 22:29 022 6 gusting 10 16.1
2017-May-29 22:24 16.1
2017-May-29 22:19 16.1
2017-May-29 22:14 15.6
2017-May-29 22:09 022 4 gusting 5 15.6
2017-May-29 22:04 022 4 gusting 6 15.0
2017-May-29 21:59 045 5 gusting 7 14.4
2017-May-29 21:54 045 14.4
2017-May-29 21:49 045 14.4
2017-May-29 21:44 337 0 gusting 2 14.4
2017-May-29 21:39 337 14.4
2017-May-29 21:34 315 14.4
2017-May-29 21:29 022 14.4
2017-May-29 21:24 315 0 gusting 1 15.0
2017-May-29 21:19 315 0 gusting 1 15.0
2017-May-29 21:14 067 15.0
2017-May-29 21:09 270 15.0
2017-May-29 21:04 337 0 gusting 1 15.0
2017-May-29 20:59 292 0 gusting 0 15.6
2017-May-29 20:54 15.6
2017-May-29 20:49 337 3 gusting 5 15.6
2017-May-29 20:44 022 16.1
2017-May-29 20:39 16.1
2017-May-29 20:34 022 4 gusting 6 16.1
2017-May-29 20:29 022 2 gusting 4 16.1
2017-May-29 20:24 045 4 gusting 6 16.1
2017-May-29 20:19 022 5 gusting 6 16.1
2017-May-29 20:14 022 2 gusting 4 16.1
2017-May-29 20:09 16.1
2017-May-29 20:04 16.1
2017-May-29 19:59 16.1
2017-May-29 19:54 16.1
2017-May-29 19:49 16.1
2017-May-29 19:44 16.1
2017-May-29 19:39 067 1 gusting 2 16.1
2017-May-29 19:34 315 2 gusting 5 16.1
2017-May-29 19:29 045 4 gusting 6 16.1
2017-May-29 19:24 16.1
2017-May-29 19:19 067 5 gusting 7 16.1
2017-May-29 19:14 16.1
2017-May-29 19:09 022 4 gusting 6 16.1
2017-May-29 19:04 045 3 gusting 5 16.7
2017-May-29 18:59 16.7
2017-May-29 18:54 022 5 gusting 7 16.7
2017-May-29 18:49 16.1
2017-May-29 18:44 045 6 gusting 9 16.1
2017-May-29 18:39 16.1
2017-May-29 18:34 022 6 gusting 11 16.1
2017-May-29 18:29 16.1
2017-May-29 18:24 16.1
2017-May-29 18:19 045 4 gusting 7 16.1
2017-May-29 18:14 16.1
2017-May-29 18:09 337 3 gusting 5 16.1
2017-May-29 18:04 337 4 gusting 7 16.1
2017-May-29 17:59 045 1 gusting 3 16.1
2017-May-29 17:54 16.1
2017-May-29 17:49 16.1
2017-May-29 17:44 16.1
2017-May-29 17:39 16.1
2017-May-29 17:34 045 4 gusting 8 16.1
2017-May-29 17:29 022 4 gusting 7 16.7
2017-May-29 17:24 16.7
2017-May-29 17:19 16.7
2017-May-29 17:14 022 3 gusting 6 17.2
2017-May-29 17:09 045 2 gusting 5 17.2
2017-May-29 17:04 17.2
2017-May-29 16:59 022 5 gusting 9 17.2
2017-May-29 16:54 022 5 gusting 7 16.7
2017-May-29 16:49 16.7
2017-May-29 16:44 022 7 gusting 11 16.7
2017-May-29 16:39 17.2
2017-May-29 16:34 045 5 gusting 8 17.2
2017-May-29 16:29 337 6 gusting 9 17.8
2017-May-29 16:24 17.8
2017-May-29 16:19 337 6 gusting 13 17.2
2017-May-29 16:14 17.2
2017-May-29 16:09 315 6 gusting 9 17.2
2017-May-29 16:04 022 6 gusting 10 17.2
2017-May-29 15:59 16.7
2017-May-29 15:54 315 5 gusting 7 17.2
2017-May-29 15:49 090 4 gusting 6 17.2
2017-May-29 15:44 045 3 gusting 6 17.2
2017-May-29 15:39 315 2 gusting 3 16.7
2017-May-29 15:34 022 3 gusting 6 16.7
2017-May-29 15:29 022 1 gusting 3 16.7
2017-May-29 15:24 022 6 gusting 8 16.7
2017-May-29 15:19 022 6 gusting 9 16.7
2017-May-29 15:14 16.7
2017-May-29 15:09 090 2 gusting 4 16.7
2017-May-29 15:04 067 0 gusting 2 16.7
2017-May-29 14:59 337 2 gusting 3 16.7
2017-May-29 14:54 337 3 gusting 6 16.7
2017-May-29 14:49 022 4 gusting 6 16.7
2017-May-29 14:44 16.7
2017-May-29 14:39 337 7 gusting 13 17.2
2017-May-29 14:34 045 3 gusting 8 17.2
2017-May-29 14:29 022 3 gusting 6 17.2
2017-May-29 14:24 17.2
2017-May-29 14:19 022 6 gusting 9 17.8
2017-May-29 14:14 045 5 gusting 6 17.8
2017-May-29 14:09 17.8
2017-May-29 14:04 247 4 gusting 6 17.8
2017-May-29 13:59 045 6 gusting 10 17.8
2017-May-29 13:54 022 6 gusting 11 17.8
2017-May-29 13:49 17.8
2017-May-29 13:44 17.8
2017-May-29 13:39 337 6 gusting 10 17.8
2017-May-29 13:34 045 7 gusting 10 17.8
2017-May-29 13:29 337 6 gusting 11 17.8
2017-May-29 13:24 045 6 gusting 10 17.8
2017-May-29 13:19 022 7 gusting 13 17.8
2017-May-29 13:14 022 6 gusting 13 18.3
2017-May-29 13:09 18.3
2017-May-29 13:04 045 11 gusting 17 18.3
2017-May-29 12:59 18.9
2017-May-29 12:54 022 12 gusting 19 19.4
2017-May-29 12:49 315 8 gusting 13 19.4
2017-May-29 12:44 090 8 gusting 11 20.0
2017-May-29 12:39 022 7 gusting 12 20.0
2017-May-29 12:34 337 4 gusting 7 19.4
2017-May-29 12:29 270 5 gusting 10 18.9
2017-May-29 12:24 045 6 gusting 8 18.9
2017-May-29 12:19 18.3
2017-May-29 12:14 18.3
2017-May-29 12:09 18.3
2017-May-29 12:04 022 6 gusting 10 18.3
2017-May-29 11:59 337 8 gusting 15 18.9
2017-May-29 11:54 090 9 gusting 13 18.9
2017-May-29 11:49 045 7 gusting 16 18.9
2017-May-29 11:44 022 3 gusting 6 18.9
2017-May-29 11:39 045 6 gusting 10 18.9
2017-May-29 11:34 067 6 gusting 13 18.3
2017-May-29 11:29 337 8 gusting 12 18.3
2017-May-29 11:24 315 9 gusting 12 18.9
2017-May-29 11:19 337 10 gusting 16 19.4
2017-May-29 11:14 20.0
2017-May-29 11:09 20.0
2017-May-29 11:04 337 7 gusting 13 20.0
2017-May-29 10:59 20.6
2017-May-29 10:54 157 8 gusting 12 21.1
2017-May-29 10:49 045 8 gusting 13 21.7
2017-May-29 10:44 21.7
2017-May-29 10:39 21.7
2017-May-29 10:34 315 8 gusting 12 21.7
2017-May-29 10:29 022 7 gusting 13 21.7
2017-May-29 10:24 21.7
2017-May-29 10:19 20.6
2017-May-29 10:14 20.0
2017-May-29 10:09 022 12 gusting 23 20.0
2017-May-29 10:04 045 5 gusting 6 20.0
2017-May-29 09:59 20.6
2017-May-29 09:54 045 6 gusting 13 21.1
2017-May-29 09:49 045 10 gusting 19 21.7
2017-May-29 09:44 045 14 gusting 22 20.6
2017-May-29 09:39 045 10 gusting 15 19.4
2017-May-29 09:34 022 12 gusting 19 19.4
2017-May-29 09:29 292 12 gusting 19 18.9
2017-May-29 09:24 045 16 gusting 25 18.9
2017-May-29 09:19 045 13 gusting 23 19.4
2017-May-29 09:14 022 15 gusting 24 20.0
2017-May-29 09:09 315 14 gusting 22 20.6
2017-May-29 09:04 045 16 gusting 29 21.1
2017-May-29 08:59 045 16 gusting 24 21.1
2017-May-29 08:54 022 10 gusting 19 21.1
2017-May-29 08:49 022 17 gusting 26 20.6
2017-May-29 08:44 337 8 gusting 20 19.4
2017-May-29 08:39 067 15 gusting 24 20.0
2017-May-29 08:34 20.6
2017-May-29 08:29 045 13 gusting 22 20.6
2017-May-29 08:24 022 13 gusting 19 19.4
2017-May-29 08:19 045 14 gusting 23 18.9
2017-May-29 08:14 20.0
2017-May-29 08:09 045 15 gusting 28 20.6
2017-May-29 08:04 022 8 gusting 17 20.6
2017-May-29 07:59 202 11 gusting 16 20.6
2017-May-29 07:54 022 13 gusting 20 20.0
2017-May-29 07:49 045 11 gusting 18 19.4
2017-May-29 07:44 045 10 gusting 18 18.9
2017-May-29 07:39 045 9 gusting 13 18.9
2017-May-29 07:34 18.9
2017-May-29 07:29 022 11 gusting 15 18.9
2017-May-29 07:24 045 13 gusting 21 18.9
2017-May-29 07:19 20.0
2017-May-29 07:14 022 12 gusting 21 20.6
2017-May-29 07:09 045 7 gusting 11 20.0
2017-May-29 07:04 045 11 gusting 20 20.0
2017-May-29 06:59 022 12 gusting 16 19.4
2017-May-29 06:54 022 13 gusting 22 19.4
2017-May-29 06:49 045 13 gusting 24 18.9
2017-May-29 06:44 045 9 gusting 18 18.9
2017-May-29 06:39 022 13 gusting 22 18.9
2017-May-29 06:34 090 7 gusting 10 18.3
2017-May-29 06:29 022 11 gusting 14 17.8
2017-May-29 06:24 090 8 gusting 16 17.8
2017-May-29 06:19 17.2
2017-May-29 06:14 045 8 gusting 12 17.2
2017-May-29 06:09 045 13 gusting 17 16.7
2017-May-29 06:04 022 6 gusting 8 16.1
2017-May-29 05:59 022 7 gusting 13 16.7
2017-May-29 05:54 315 8 gusting 12 16.7
2017-May-29 05:49 045 5 gusting 9 16.1
2017-May-29 05:44 315 8 gusting 12 15.6
2017-May-29 05:39 15.6
2017-May-29 05:34 022 11 gusting 18 15.6
2017-May-29 05:29 15.6
2017-May-29 05:24 022 7 gusting 10 15.6
2017-May-29 05:19 15.6
2017-May-29 05:14 022 6 gusting 10 15.0
2017-May-29 05:09 315 11 gusting 18 15.0
2017-May-29 05:04 067 4 gusting 6 15.0
2017-May-29 04:59 15.0
2017-May-29 04:54 045 4 gusting 6 15.0
2017-May-29 04:49 090 4 gusting 10 15.0
2017-May-29 04:44 045 6 gusting 10 15.0
2017-May-29 04:39 022 3 gusting 6 15.0
2017-May-29 04:34 045 8 gusting 16 15.0
2017-May-29 04:29 045 7 gusting 11 15.0
2017-May-29 04:24 022 6 gusting 17 15.0
2017-May-29 04:19 022 8 gusting 16 15.0
2017-May-29 04:14 337 6 gusting 12 15.0
2017-May-29 04:09 022 8 gusting 14 15.0
2017-May-29 04:04 022 11 gusting 19 15.0
2017-May-29 03:59 15.0
2017-May-29 03:54 067 13 gusting 21 15.0
2017-May-29 03:49 022 8 gusting 13 15.0
2017-May-29 03:44 022 9 gusting 16 15.0
2017-May-29 03:39 022 8 gusting 13 14.4
2017-May-29 03:34 112 11 gusting 15 14.4
2017-May-29 03:29 045 7 gusting 14 14.4
2017-May-29 03:24 045 9 gusting 17 14.4
2017-May-29 03:19 14.4
2017-May-29 03:14 14.4
2017-May-29 03:09 045 6 gusting 8 14.4
2017-May-29 03:04 022 8 gusting 13 14.4
2017-May-29 02:59 337 9 gusting 20 14.4
2017-May-29 02:54 045 10 gusting 17 14.4
2017-May-29 02:49 14.4
2017-May-29 02:44 022 9 gusting 13 14.4
2017-May-29 02:39 045 11 gusting 16 14.4
2017-May-29 02:34 022 6 gusting 10 14.4
2017-May-29 02:29 045 4 gusting 7 14.4
2017-May-29 02:24 045 5 gusting 10 14.4
2017-May-29 02:19 045 6 gusting 13 14.4
2017-May-29 02:14 067 11 gusting 15 14.4
2017-May-29 02:09 14.4
2017-May-29 02:04 14.4
2017-May-29 01:59 14.4
2017-May-29 01:54 090 8 gusting 12 14.4
2017-May-29 01:49 045 11 gusting 18 14.4
2017-May-29 01:44 157 4 gusting 8 15.0
2017-May-29 01:39 15.0
2017-May-29 01:34 022 8 gusting 12 15.0
2017-May-29 01:29 022 13 gusting 24 15.0
2017-May-29 01:24 15.0
2017-May-29 01:19 337 8 gusting 16 15.0
2017-May-29 01:14 045 6 gusting 11 15.0
2017-May-29 01:09 022 8 gusting 18 15.0
2017-May-29 01:04 045 6 gusting 10 15.0
2017-May-29 00:59 022 6 gusting 11 15.0
2017-May-29 00:54 135 6 gusting 12 15.0
2017-May-29 00:49 022 6 gusting 10 15.0
2017-May-29 00:44 135 6 gusting 12 15.0
2017-May-29 00:39 022 7 gusting 11 15.0
2017-May-29 00:34 225 4 gusting 6 15.0
2017-May-29 00:29 15.0
2017-May-29 00:24 045 6 gusting 8 15.0
2017-May-29 00:19 15.0
2017-May-29 00:14 045 6 gusting 9 15.0
2017-May-29 00:09 022 10 gusting 17 15.0
2017-May-29 00:04 337 12 gusting 24 15.0
2017-May-28 23:59 315 9 gusting 13 15.0
2017-May-28 23:54 045 10 gusting 15 15.0
2017-May-28 23:49 315 11 gusting 26 15.0
2017-May-28 23:44 022 6 gusting 8 15.0
2017-May-28 23:39 022 8 gusting 16 15.0
2017-May-28 23:34 022 6 gusting 9 15.0
2017-May-28 23:29 135 4 gusting 9 15.0
2017-May-28 23:24 022 4 gusting 7 15.0
2017-May-28 23:19 15.0
2017-May-28 23:14 090 8 gusting 13 15.0
2017-May-28 23:09 15.0
2017-May-28 23:04 022 7 gusting 15 15.0
2017-May-28 22:59 022 6 gusting 10 15.0
2017-May-28 22:54 045 9 gusting 18 15.0
2017-May-28 22:49 292 6 gusting 13 15.0
2017-May-28 22:44 337 8 gusting 15 15.0
2017-May-28 22:39 15.0
2017-May-28 22:34 045 6 gusting 11 15.0
2017-May-28 22:29 067 11 gusting 15 15.6
2017-May-28 22:24 045 16 gusting 21 15.6
2017-May-28 22:19 045 5 gusting 7 15.6
2017-May-28 22:14 045 8 gusting 15 15.6
2017-May-28 22:09 022 14 gusting 24 15.6
2017-May-28 22:04 112 13 gusting 22 15.0
2017-May-28 21:59 090 5 gusting 11 15.0
2017-May-28 21:54 022 8 gusting 19 15.0
2017-May-28 21:49 112 10 gusting 18 15.6
2017-May-28 21:44 045 6 gusting 10 15.0
2017-May-28 21:39 067 10 gusting 17 15.0
2017-May-28 21:34 337 7 gusting 16 15.0
2017-May-28 21:29 045 12 gusting 19 15.6
2017-May-28 21:24 022 13 gusting 20 15.6
2017-May-28 21:19 045 9 gusting 12 15.6
2017-May-28 21:14 022 9 gusting 15 15.6
2017-May-28 21:09 112 8 gusting 12 15.0
2017-May-28 21:04 337 6 gusting 12 15.0
2017-May-28 20:59 067 8 gusting 13 15.6
2017-May-28 20:54 315 7 gusting 15 15.0
2017-May-28 20:49 15.6
2017-May-28 20:44 022 10 gusting 16 15.0
2017-May-28 20:39 270 11 gusting 19 15.0
2017-May-28 20:34 225 7 gusting 14 15.0
2017-May-28 20:29 15.0
2017-May-28 20:24 15.6
2017-May-28 20:19 045 9 gusting 17 15.6
2017-May-28 20:14 067 9 gusting 13 15.6
2017-May-28 20:09 292 3 gusting 5 15.6
2017-May-28 20:04 090 10 gusting 16 15.6
2017-May-28 19:59 15.6
2017-May-28 19:54 045 6 gusting 13 15.0
2017-May-28 19:49 15.0
2017-May-28 19:44 15.6
2017-May-28 19:39 022 12 gusting 19 15.0
2017-May-28 19:34 15.0
2017-May-28 19:29 022 7 gusting 12 15.0
2017-May-28 19:24 045 6 gusting 11 15.0
2017-May-28 19:19 045 8 gusting 19 15.0
2017-May-28 19:14 15.0
2017-May-28 19:09 15.0
2017-May-28 19:04 045 12 gusting 20 15.0
2017-May-28 18:59 135 5 gusting 11 15.0
2017-May-28 18:54 15.0
2017-May-28 18:49 022 7 gusting 14 15.0
2017-May-28 18:44 337 7 gusting 13 15.0
2017-May-28 18:39 022 6 gusting 17 15.0
2017-May-28 18:34 022 6 gusting 10 15.0
2017-May-28 18:29 315 5 gusting 10 15.0
2017-May-28 18:24 045 6 gusting 10 14.4
2017-May-28 18:19 14.4
2017-May-28 18:14 247 1 gusting 4 14.4
2017-May-28 18:09 14.4
2017-May-28 18:04 247 4 gusting 15 14.4
2017-May-28 17:59 022 4 gusting 6 14.4
2017-May-28 17:54 067 4 gusting 9 14.4
2017-May-28 17:49 135 2 gusting 4 14.4
2017-May-28 17:44 045 2 gusting 5 14.4
2017-May-28 17:39 045 4 gusting 7 14.4
2017-May-28 17:34 14.4
2017-May-28 17:29 292 6 gusting 11 14.4
2017-May-28 17:24 14.4
2017-May-28 17:19 14.4
2017-May-28 17:14 14.4
2017-May-28 17:09 045 5 gusting 6 14.4
2017-May-28 17:04 337 7 gusting 13 14.4
2017-May-28 16:59 045 4 gusting 10 14.4
2017-May-28 16:54 315 4 gusting 6 14.4
2017-May-28 16:49 292 6 gusting 12 14.4
2017-May-28 16:44 022 6 gusting 10 15.0
2017-May-28 16:39 045 6 gusting 11 15.0
2017-May-28 16:34 15.0
2017-May-28 16:29 15.0
2017-May-28 16:24 15.0
2017-May-28 16:19 022 9 gusting 15 15.0
2017-May-28 16:14 045 9 gusting 14 15.0
2017-May-28 16:09 045 11 gusting 17 14.4
2017-May-28 16:04 022 10 gusting 17 14.4
2017-May-28 15:59 045 9 gusting 18 14.4
2017-May-28 15:54 022 7 gusting 12 14.4
2017-May-28 15:49 14.4
2017-May-28 15:44 045 11 gusting 17 14.4
2017-May-28 15:39 022 6 gusting 11 14.4
2017-May-28 15:34 045 10 gusting 15 14.4
2017-May-28 15:29 14.4
2017-May-28 15:24 337 9 gusting 18 14.4
2017-May-28 15:19 14.4
2017-May-28 15:14 045 6 gusting 10 14.4
2017-May-28 15:09 022 9 gusting 15 14.4
2017-May-28 15:04 022 11 gusting 17 14.4
2017-May-28 14:59 292 9 gusting 15 14.4
2017-May-28 14:54 022 10 gusting 18 14.4
2017-May-28 14:49 13.9
2017-May-28 14:44 045 7 gusting 13 13.9
2017-May-28 14:39 022 6 gusting 13 13.9
2017-May-28 14:34 045 6 gusting 13 13.9
2017-May-28 14:29 022 4 gusting 8 13.9
2017-May-28 14:24 045 6 gusting 13 13.9
2017-May-28 14:19 045 7 gusting 17 13.9
2017-May-28 14:14 13.9
2017-May-28 14:09 13.9
2017-May-28 14:04 13.3
2017-May-28 13:59 315 6 gusting 13 13.3
2017-May-28 13:54 022 7 gusting 11 13.3
2017-May-28 13:49 022 6 gusting 9 13.3
2017-May-28 13:44 13.3
2017-May-28 13:39 045 3 gusting 6 13.3
2017-May-28 13:34 067 6 gusting 7 13.3
2017-May-28 13:29 045 5 gusting 8 12.8
2017-May-28 13:24 13.3
2017-May-28 13:19 12.8
2017-May-28 13:14 022 6 gusting 9 12.8
2017-May-28 13:09 022 5 gusting 6 12.8
2017-May-28 13:04 022 6 gusting 10 12.8
2017-May-28 12:59 12.8
2017-May-28 12:54 292 6 gusting 9 12.8
2017-May-28 12:49 135 4 gusting 6 12.8
2017-May-28 12:44 337 6 gusting 9 12.8
2017-May-28 12:39 022 7 gusting 10 12.8
2017-May-28 12:34 022 7 gusting 10 12.8
2017-May-28 12:29 022 6 gusting 9 12.8
2017-May-28 12:24 045 6 gusting 10 12.8
2017-May-28 12:19 12.8
2017-May-28 12:14 022 6 gusting 10 12.8
2017-May-28 12:09 12.8
2017-May-28 12:04 12.8